Kaszuby — C6XD6 — position and weather

sailwx.info

Track history (hours):
 
Tides and Currents Weather Stations Pressure Air Temp Water Temp Dewpoint Dewpoint Depression Visibility Wind Speed Wind Dir Waves Ship Positions

Kaszuby

Last reported at 2014-Dec-07 22:33 UTC. Time now 2014-Dec-18 13:29 UTC.
Position N 36°34' E 014°45'.
Warning: this ship's position is 10 days out of date.

Length 190 m; draft 9.8 m.

Type: Cargo ship. MMSI: 311005600.

Date/timePositionNaut miles runAvg speedWind from/ knotsBaromVisibWave heightAir tempDewpointWater temp
2014-Dec-07 22:33N 36°34' E 014°45'1212.3
2014-Dec-07 21:34N 36°36' E 014°30'1212.1
2014-Dec-07 20:33N 36°39' E 014°15'1212.2
2014-Dec-07 19:33N 36°40' E 014°00'1211.7
2014-Dec-07 18:33N 36°42' E 013°46'1411.3
2014-Dec-07 17:22N 36°44' E 013°29'  
2014-Dec-04 15:21N 36°00' W 005°07'1113.6
2014-Dec-04 14:33N 35°59' W 005°20'  
2014-Nov-30 20:11N 35°29' W 023°40'5110.4
2014-Nov-30 15:18N 35°28' W 024°42'21310.7
2014-Nov-29 19:22N 35°19' W 029°03'1110.8
2014-Nov-29 18:20N 35°19' W 029°16'911.0
2014-Nov-29 17:30N 35°19' W 029°27'57 9.6
2014-Nov-29 11:33N 35°13' W 030°37'2211.1
2014-Nov-29 09:31N 34°58' W 030°57'32 9.9
2014-Nov-29 06:20N 34°59' W 031°35'4611.5
2014-Nov-29 02:18N 35°16' W 032°28'  
Track history (hours):
 
Tides and Currents Weather Stations Pressure Air Temp Water Temp Dewpoint Dewpoint Depression Visibility Wind Speed Wind Dir Waves Ship Positions

Kaszuby

Last reported at 2014-Dec-07 22:33 UTC. Time now 2014-Dec-18 13:29 UTC.
Position N 36°34' E 014°45'.
Warning: this ship's position is 10 days out of date.

Length 190 m; draft 9.8 m.

Type: Cargo ship. MMSI: 311005600.

Date/timePositionNaut miles runAvg speedWind from/ knotsBaromVisibWave heightAir tempDewpointWater temp
2014-Dec-07 22:33N 36°34' E 014°45'1212.3
2014-Dec-07 21:34N 36°36' E 014°30'1212.1
2014-Dec-07 20:33N 36°39' E 014°15'1212.2
2014-Dec-07 19:33N 36°40' E 014°00'1211.7
2014-Dec-07 18:33N 36°42' E 013°46'1411.3
2014-Dec-07 17:22N 36°44' E 013°29'  
2014-Dec-04 15:21N 36°00' W 005°07'1113.6
2014-Dec-04 14:33N 35°59' W 005°20'  
2014-Nov-30 20:11N 35°29' W 023°40'5110.4
2014-Nov-30 15:18N 35°28' W 024°42'21310.7
2014-Nov-29 19:22N 35°19' W 029°03'1110.8
2014-Nov-29 18:20N 35°19' W 029°16'911.0
2014-Nov-29 17:30N 35°19' W 029°27'57 9.6
2014-Nov-29 11:33N 35°13' W 030°37'2211.1
2014-Nov-29 09:31N 34°58' W 030°57'32 9.9
2014-Nov-29 06:20N 34°59' W 031°35'4611.5
2014-Nov-29 02:18N 35°16' W 032°28'  

Dump ship's entire track history